sensor_id;sensor_type;location;lat;lon;timestamp;pressure;altitude;pressure_sealevel;temperature;humidity
55373;BME280;41249;47.838;16.490;2022-12-18T00:01:20;100811.19;;;-6.98;72.67
55373;BME280;41249;47.838;16.490;2022-12-18T00:03:47;100805.88;;;-6.93;70.19
55373;BME280;41249;47.838;16.490;2022-12-18T00:06:14;100805.31;;;-6.95;70.62
55373;BME280;41249;47.838;16.490;2022-12-18T00:08:42;100815.03;;;-6.94;70.62
55373;BME280;41249;47.838;16.490;2022-12-18T00:11:13;100811.75;;;-6.96;71.92
55373;BME280;41249;47.838;16.490;2022-12-18T00:13:40;100800.88;;;-7.01;71.50
55373;BME280;41249;47.838;16.490;2022-12-18T00:16:10;100814.84;;;-7.04;72.65
55373;BME280;41249;47.838;16.490;2022-12-18T00:18:38;100810.28;;;-7.04;72.73
55373;BME280;41249;47.838;16.490;2022-12-18T00:21:08;100823.94;;;-7.10;72.08
55373;BME280;41249;47.838;16.490;2022-12-18T00:23:35;100828.69;;;-7.17;72.97
55373;BME280;41249;47.838;16.490;2022-12-18T00:26:05;100838.56;;;-7.23;73.97
55373;BME280;41249;47.838;16.490;2022-12-18T00:28:32;100828.44;;;-7.32;73.91
55373;BME280;41249;47.838;16.490;2022-12-18T00:31:08;100838.56;;;-7.39;74.68
55373;BME280;41249;47.838;16.490;2022-12-18T00:33:35;100842.28;;;-7.40;74.98
55373;BME280;41249;47.838;16.490;2022-12-18T00:36:14;100837.06;;;-7.47;74.33
55373;BME280;41249;47.838;16.490;2022-12-18T00:38:41;100853.75;;;-7.62;74.84
55373;BME280;41249;47.838;16.490;2022-12-18T00:41:09;100853.81;;;-7.73;75.50
55373;BME280;41249;47.838;16.490;2022-12-18T00:43:37;100853.94;;;-7.80;76.68
55373;BME280;41249;47.838;16.490;2022-12-18T00:46:05;100857.69;;;-7.81;76.97
55373;BME280;41249;47.838;16.490;2022-12-18T00:48:32;100849.84;;;-7.82;76.60
55373;BME280;41249;47.838;16.490;2022-12-18T00:50:58;100842.66;;;-7.77;76.65
55373;BME280;41249;47.838;16.490;2022-12-18T00:53:25;100834.00;;;-7.79;76.79
55373;BME280;41249;47.838;16.490;2022-12-18T00:55:52;100838.25;;;-7.83;76.16
55373;BME280;41249;47.838;16.490;2022-12-18T00:58:18;100852.09;;;-7.91;77.23
55373;BME280;41249;47.838;16.490;2022-12-18T01:00:45;100852.56;;;-7.94;78.04
55373;BME280;41249;47.838;16.490;2022-12-18T01:03:14;100857.47;;;-7.91;78.04
55373;BME280;41249;47.838;16.490;2022-12-18T01:05:41;100870.53;;;-7.99;77.79
55373;BME280;41249;47.838;16.490;2022-12-18T01:08:08;100854.69;;;-7.96;76.92
55373;BME280;41249;47.838;16.490;2022-12-18T01:10:35;100858.44;;;-7.97;78.43
55373;BME280;41249;47.838;16.490;2022-12-18T01:13:02;100862.53;;;-7.94;77.56
55373;BME280;41249;47.838;16.490;2022-12-18T01:15:28;100857.25;;;-7.89;78.14
55373;BME280;41249;47.838;16.490;2022-12-18T01:17:55;100866.53;;;-7.97;78.03
55373;BME280;41249;47.838;16.490;2022-12-18T01:20:21;100872.84;;;-8.03;77.77
55373;BME280;41249;47.838;16.490;2022-12-18T01:22:48;100868.50;;;-8.04;78.06
55373;BME280;41249;47.838;16.490;2022-12-18T01:25:14;100874.00;;;-7.99;78.77
55373;BME280;41249;47.838;16.490;2022-12-18T01:27:41;100864.16;;;-7.93;78.18
55373;BME280;41249;47.838;16.490;2022-12-18T01:30:08;100873.56;;;-8.07;78.88
55373;BME280;41249;47.838;16.490;2022-12-18T01:32:34;100885.88;;;-8.23;77.53
55373;BME280;41249;47.838;16.490;2022-12-18T01:35:01;100886.34;;;-8.26;79.91
55373;BME280;41249;47.838;16.490;2022-12-18T01:37:28;100881.06;;;-8.21;78.81
55373;BME280;41249;47.838;16.490;2022-12-18T01:39:54;100886.94;;;-8.24;79.94
55373;BME280;41249;47.838;16.490;2022-12-18T01:42:21;100881.75;;;-8.14;79.40
55373;BME280;41249;47.838;16.490;2022-12-18T01:45:05;100883.19;;;-8.23;79.68
55373;BME280;41249;47.838;16.490;2022-12-18T01:47:36;100888.00;;;-8.25;79.58
55373;BME280;41249;47.838;16.490;2022-12-18T01:52:43;100900.53;;;-8.31;80.09
55373;BME280;41249;47.838;16.490;2022-12-18T01:55:12;100900.19;;;-8.34;79.40
55373;BME280;41249;47.838;16.490;2022-12-18T01:57:41;100910.84;;;-8.39;79.82
55373;BME280;41249;47.838;16.490;2022-12-18T02:00:19;100911.06;;;-8.52;80.04
55373;BME280;41249;47.838;16.490;2022-12-18T02:02:46;100912.94;;;-8.53;80.50
55373;BME280;41249;47.838;16.490;2022-12-18T02:05:17;100914.69;;;-8.35;80.56
55373;BME280;41249;47.838;16.490;2022-12-18T02:08:08;100917.16;;;-8.45;79.76
55373;BME280;41249;47.838;16.490;2022-12-18T02:13:23;100920.19;;;-8.53;80.32
55373;BME280;41249;47.838;16.490;2022-12-18T02:16:13;100931.53;;;-8.51;80.32
55373;BME280;41249;47.838;16.490;2022-12-18T02:18:48;100936.59;;;-8.55;79.99
55373;BME280;41249;47.838;16.490;2022-12-18T02:21:32;100933.31;;;-8.57;79.84
55373;BME280;41249;47.838;16.490;2022-12-18T02:26:45;100939.72;;;-8.69;79.96
55373;BME280;41249;47.838;16.490;2022-12-18T02:29:17;100946.97;;;-8.58;79.66
55373;BME280;41249;47.838;16.490;2022-12-18T02:31:49;100948.13;;;-8.66;79.66
55373;BME280;41249;47.838;16.490;2022-12-18T02:34:20;100955.88;;;-8.69;79.58
55373;BME280;41249;47.838;16.490;2022-12-18T02:36:50;100961.44;;;-8.82;79.84
55373;BME280;41249;47.838;16.490;2022-12-18T02:39:20;100956.97;;;-8.88;79.83
55373;BME280;41249;47.838;16.490;2022-12-18T02:41:48;100957.47;;;-8.92;80.03
55373;BME280;41249;47.838;16.490;2022-12-18T02:44:15;100974.06;;;-8.95;80.38
55373;BME280;41249;47.838;16.490;2022-12-18T02:46:46;100977.47;;;-8.87;80.95
55373;BME280;41249;47.838;16.490;2022-12-18T02:51:51;100977.00;;;-8.84;80.38
55373;BME280;41249;47.838;16.490;2022-12-18T02:56:56;100974.84;;;-8.64;80.91
55373;BME280;41249;47.838;16.490;2022-12-18T03:02:59;100980.28;;;-8.82;80.50
55373;BME280;41249;47.838;16.490;2022-12-18T03:05:40;100987.66;;;-8.78;81.76
55373;BME280;41249;47.838;16.490;2022-12-18T03:08:26;100999.31;;;-8.96;81.20
55373;BME280;41249;47.838;16.490;2022-12-18T03:13:24;100993.59;;;-8.87;81.36
55373;BME280;41249;47.838;16.490;2022-12-18T03:15:55;100993.88;;;-8.77;82.41
55373;BME280;41249;47.838;16.490;2022-12-18T03:18:47;100997.53;;;-8.72;81.70
55373;BME280;41249;47.838;16.490;2022-12-18T03:21:17;100991.91;;;-8.70;81.90
55373;BME280;41249;47.838;16.490;2022-12-18T03:23:48;101000.25;;;-8.60;80.90
55373;BME280;41249;47.838;16.490;2022-12-18T03:26:18;101002.03;;;-8.54;81.45
55373;BME280;41249;47.838;16.490;2022-12-18T03:28:51;101001.53;;;-8.51;81.00
55373;BME280;41249;47.838;16.490;2022-12-18T03:31:22;101011.03;;;-8.49;81.46
55373;BME280;41249;47.838;16.490;2022-12-18T03:33:54;100999.53;;;-8.67;81.51
55373;BME280;41249;47.838;16.490;2022-12-18T03:36:22;100998.41;;;-8.89;80.80
55373;BME280;41249;47.838;16.490;2022-12-18T03:38:49;101004.50;;;-8.82;81.82
55373;BME280;41249;47.838;16.490;2022-12-18T03:41:29;100999.72;;;-8.80;81.92
55373;BME280;41249;47.838;16.490;2022-12-18T03:49:38;101020.47;;;-8.99;80.54
55373;BME280;41249;47.838;16.490;2022-12-18T03:54:44;101016.91;;;-9.66;81.04
55373;BME280;41249;47.838;16.490;2022-12-18T03:57:16;101015.72;;;-9.88;81.77
55373;BME280;41249;47.838;16.490;2022-12-18T03:59:44;101018.63;;;-9.89;82.37
55373;BME280;41249;47.838;16.490;2022-12-18T04:02:11;101020.72;;;-9.91;82.38
55373;BME280;41249;47.838;16.490;2022-12-18T04:04:40;101021.53;;;-9.91;83.43
55373;BME280;41249;47.838;16.490;2022-12-18T04:07:07;101023.28;;;-10.03;83.69
55373;BME280;41249;47.838;16.490;2022-12-18T04:09:36;101021.69;;;-10.10;82.93
55373;BME280;41249;47.838;16.490;2022-12-18T04:12:06;101017.59;;;-10.13;82.73
55373;BME280;41249;47.838;16.490;2022-12-18T04:14:34;101026.72;;;-10.14;83.01
55373;BME280;41249;47.838;16.490;2022-12-18T04:17:02;101033.78;;;-10.19;82.77
55373;BME280;41249;47.838;16.490;2022-12-18T04:19:29;101024.97;;;-10.27;82.59
55373;BME280;41249;47.838;16.490;2022-12-18T04:21:56;101030.16;;;-10.32;83.19
55373;BME280;41249;47.838;16.490;2022-12-18T04:24:22;101028.50;;;-10.33;83.39
55373;BME280;41249;47.838;16.490;2022-12-18T04:26:49;101035.09;;;-10.29;83.91
55373;BME280;41249;47.838;16.490;2022-12-18T04:29:15;101039.81;;;-10.24;83.81
55373;BME280;41249;47.838;16.490;2022-12-18T04:31:42;101042.84;;;-10.21;84.16
55373;BME280;41249;47.838;16.490;2022-12-18T04:34:08;101043.69;;;-10.20;83.91
55373;BME280;41249;47.838;16.490;2022-12-18T04:36:35;101038.06;;;-10.12;83.86
55373;BME280;41249;47.838;16.490;2022-12-18T04:39:01;101043.41;;;-10.12;84.09
55373;BME280;41249;47.838;16.490;2022-12-18T04:41:28;101051.31;;;-10.17;82.82
55373;BME280;41249;47.838;16.490;2022-12-18T04:43:54;101048.69;;;-10.24;83.31
55373;BME280;41249;47.838;16.490;2022-12-18T04:46:21;101050.31;;;-10.23;83.57
55373;BME280;41249;47.838;16.490;2022-12-18T04:48:48;101059.09;;;-9.84;84.79
55373;BME280;41249;47.838;16.490;2022-12-18T04:51:14;101064.34;;;-9.53;83.88
55373;BME280;41249;47.838;16.490;2022-12-18T04:53:41;101066.97;;;-9.46;83.66
55373;BME280;41249;47.838;16.490;2022-12-18T04:56:10;101057.31;;;-9.18;84.66
55373;BME280;41249;47.838;16.490;2022-12-18T04:58:38;101064.56;;;-9.18;84.45
55373;BME280;41249;47.838;16.490;2022-12-18T05:01:06;101071.38;;;-9.16;84.31
55373;BME280;41249;47.838;16.490;2022-12-18T05:03:35;101071.06;;;-9.26;84.23
55373;BME280;41249;47.838;16.490;2022-12-18T05:06:03;101075.25;;;-9.30;84.38
55373;BME280;41249;47.838;16.490;2022-12-18T05:08:31;101060.94;;;-9.42;83.83
55373;BME280;41249;47.838;16.490;2022-12-18T05:11:02;101068.06;;;-9.72;83.87
55373;BME280;41249;47.838;16.490;2022-12-18T05:13:29;101067.53;;;-10.05;82.71
55373;BME280;41249;47.838;16.490;2022-12-18T05:15:56;101082.59;;;-10.29;84.11
55373;BME280;41249;47.838;16.490;2022-12-18T05:18:23;101090.34;;;-9.90;83.96
55373;BME280;41249;47.838;16.490;2022-12-18T05:20:51;101077.72;;;-9.46;85.14
55373;BME280;41249;47.838;16.490;2022-12-18T05:23:18;101072.88;;;-9.38;85.23
55373;BME280;41249;47.838;16.490;2022-12-18T05:25:53;101083.91;;;-9.46;84.82
55373;BME280;41249;47.838;16.490;2022-12-18T05:28:20;101081.44;;;-9.90;82.32
55373;BME280;41249;47.838;16.490;2022-12-18T05:30:51;101086.81;;;-10.15;83.02
55373;BME280;41249;47.838;16.490;2022-12-18T05:33:18;101084.97;;;-9.90;83.45
55373;BME280;41249;47.838;16.490;2022-12-18T05:35:50;101088.47;;;-9.89;83.54
55373;BME280;41249;47.838;16.490;2022-12-18T05:38:19;101092.59;;;-10.11;83.24
55373;BME280;41249;47.838;16.490;2022-12-18T05:40:47;101087.06;;;-10.23;83.01
55373;BME280;41249;47.838;16.490;2022-12-18T05:43:14;101088.91;;;-10.17;84.16
55373;BME280;41249;47.838;16.490;2022-12-18T05:45:47;101085.78;;;-10.14;84.26
55373;BME280;41249;47.838;16.490;2022-12-18T05:48:14;101097.94;;;-10.36;83.45
55373;BME280;41249;47.838;16.490;2022-12-18T05:50:43;101094.34;;;-10.24;84.57
55373;BME280;41249;47.838;16.490;2022-12-18T05:53:13;101099.50;;;-9.97;85.03
55373;BME280;41249;47.838;16.490;2022-12-18T05:55:41;101103.78;;;-9.47;85.52
55373;BME280;41249;47.838;16.490;2022-12-18T05:58:09;101101.97;;;-9.53;85.45
55373;BME280;41249;47.838;16.490;2022-12-18T06:00:38;101099.41;;;-9.66;84.74
55373;BME280;41249;47.838;16.490;2022-12-18T06:03:09;101094.19;;;-9.79;84.97
55373;BME280;41249;47.838;16.490;2022-12-18T06:05:41;101100.81;;;-10.06;83.91
55373;BME280;41249;47.838;16.490;2022-12-18T06:08:08;101108.97;;;-10.19;83.49
55373;BME280;41249;47.838;16.490;2022-12-18T06:10:35;101108.06;;;-10.13;83.82
55373;BME280;41249;47.838;16.490;2022-12-18T06:13:02;101102.44;;;-9.81;84.59
55373;BME280;41249;47.838;16.490;2022-12-18T06:15:28;101104.34;;;-9.63;84.45
55373;BME280;41249;47.838;16.490;2022-12-18T06:17:55;101118.69;;;-9.51;84.17
55373;BME280;41249;47.838;16.490;2022-12-18T06:20:22;101115.41;;;-9.53;84.31
55373;BME280;41249;47.838;16.490;2022-12-18T06:22:49;101121.50;;;-9.39;83.92
55373;BME280;41249;47.838;16.490;2022-12-18T06:25:15;101128.44;;;-9.99;81.07
55373;BME280;41249;47.838;16.490;2022-12-18T06:27:42;101132.25;;;-10.45;81.77
55373;BME280;41249;47.838;16.490;2022-12-18T06:30:10;101141.06;;;-10.69;83.38
55373;BME280;41249;47.838;16.490;2022-12-18T06:32:37;101135.69;;;-10.75;84.34
55373;BME280;41249;47.838;16.490;2022-12-18T06:35:04;101139.81;;;-10.66;84.93
55373;BME280;41249;47.838;16.490;2022-12-18T06:37:31;101143.50;;;-10.67;84.53
55373;BME280;41249;47.838;16.490;2022-12-18T06:39:57;101145.72;;;-10.58;83.99
55373;BME280;41249;47.838;16.490;2022-12-18T06:42:24;101146.03;;;-10.35;84.49
55373;BME280;41249;47.838;16.490;2022-12-18T06:44:51;101150.06;;;-10.19;84.61
55373;BME280;41249;47.838;16.490;2022-12-18T06:47:18;101151.16;;;-10.33;82.90
55373;BME280;41249;47.838;16.490;2022-12-18T06:49:45;101153.53;;;-10.50;83.99
55373;BME280;41249;47.838;16.490;2022-12-18T06:52:11;101154.66;;;-10.64;84.28
55373;BME280;41249;47.838;16.490;2022-12-18T06:54:38;101159.84;;;-10.69;84.99
55373;BME280;41249;47.838;16.490;2022-12-18T06:57:04;101164.97;;;-10.67;83.51
55373;BME280;41249;47.838;16.490;2022-12-18T06:59:31;101180.19;;;-10.55;84.96
55373;BME280;41249;47.838;16.490;2022-12-18T07:01:57;101178.09;;;-10.46;84.21
55373;BME280;41249;47.838;16.490;2022-12-18T07:04:29;101185.56;;;-10.55;83.48
55373;BME280;41249;47.838;16.490;2022-12-18T07:06:56;101191.72;;;-10.48;84.95
55373;BME280;41249;47.838;16.490;2022-12-18T07:09:24;101187.91;;;-10.27;84.01
55373;BME280;41249;47.838;16.490;2022-12-18T07:11:51;101194.47;;;-10.16;84.17
55373;BME280;41249;47.838;16.490;2022-12-18T07:14:18;101201.63;;;-10.10;83.94
55373;BME280;41249;47.838;16.490;2022-12-18T07:16:44;101199.72;;;-10.03;83.80
55373;BME280;41249;47.838;16.490;2022-12-18T07:19:11;101202.13;;;-9.89;84.01
55373;BME280;41249;47.838;16.490;2022-12-18T07:21:37;101209.13;;;-9.81;83.56
55373;BME280;41249;47.838;16.490;2022-12-18T07:24:04;101208.63;;;-9.72;83.05
55373;BME280;41249;47.838;16.490;2022-12-18T07:26:31;101207.88;;;-9.54;82.98
55373;BME280;41249;47.838;16.490;2022-12-18T07:28:58;101214.53;;;-9.38;82.58
55373;BME280;41249;47.838;16.490;2022-12-18T07:31:25;101212.56;;;-9.25;82.25
55373;BME280;41249;47.838;16.490;2022-12-18T07:33:52;101215.41;;;-9.20;81.74
55373;BME280;41249;47.838;16.490;2022-12-18T07:36:19;101236.19;;;-9.09;82.05
55373;BME280;41249;47.838;16.490;2022-12-18T07:38:47;101241.09;;;-8.99;82.40
55373;BME280;41249;47.838;16.490;2022-12-18T07:41:14;101240.16;;;-8.86;82.05
55373;BME280;41249;47.838;16.490;2022-12-18T07:43:41;101239.16;;;-8.74;81.85
55373;BME280;41249;47.838;16.490;2022-12-18T07:46:09;101240.44;;;-8.58;81.79
55373;BME280;41249;47.838;16.490;2022-12-18T07:48:39;101251.78;;;-8.38;81.34
55373;BME280;41249;47.838;16.490;2022-12-18T07:51:06;101239.69;;;-8.29;81.07
55373;BME280;41249;47.838;16.490;2022-12-18T07:53:34;101231.88;;;-8.19;81.77
55373;BME280;41249;47.838;16.490;2022-12-18T07:56:06;101240.72;;;-8.12;81.06
55373;BME280;41249;47.838;16.490;2022-12-18T07:58:53;101256.22;;;-7.96;80.83
55373;BME280;41249;47.838;16.490;2022-12-18T08:01:20;101255.66;;;-7.86;80.25
55373;BME280;41249;47.838;16.490;2022-12-18T08:03:47;101259.19;;;-7.86;80.27
55373;BME280;41249;47.838;16.490;2022-12-18T08:06:14;101274.38;;;-7.73;80.36
55373;BME280;41249;47.838;16.490;2022-12-18T08:08:41;101274.38;;;-7.62;81.13
55373;BME280;41249;47.838;16.490;2022-12-18T08:11:08;101279.66;;;-7.67;78.10
55373;BME280;41249;47.838;16.490;2022-12-18T08:13:35;101263.25;;;-7.65;77.73
55373;BME280;41249;47.838;16.490;2022-12-18T08:16:05;101277.22;;;-7.56;79.40
55373;BME280;41249;47.838;16.490;2022-12-18T08:18:33;101278.81;;;-7.37;78.48
55373;BME280;41249;47.838;16.490;2022-12-18T08:21:11;101265.84;;;-7.17;78.11
55373;BME280;41249;47.838;16.490;2022-12-18T08:23:39;101273.22;;;-7.01;78.23
55373;BME280;41249;47.838;16.490;2022-12-18T08:26:10;101271.34;;;-6.66;80.12
55373;BME280;41249;47.838;16.490;2022-12-18T08:28:37;101272.16;;;-6.54;79.46
55373;BME280;41249;47.838;16.490;2022-12-18T08:31:04;101277.19;;;-6.46;78.63
55373;BME280;41249;47.838;16.490;2022-12-18T08:33:31;101280.84;;;-6.40;78.28
55373;BME280;41249;47.838;16.490;2022-12-18T08:35:58;101286.25;;;-6.40;76.75
55373;BME280;41249;47.838;16.490;2022-12-18T08:38:26;101276.22;;;-6.40;77.51
55373;BME280;41249;47.838;16.490;2022-12-18T08:41:00;101278.69;;;-6.26;78.31
55373;BME280;41249;47.838;16.490;2022-12-18T08:43:27;101283.72;;;-6.18;78.55
55373;BME280;41249;47.838;16.490;2022-12-18T08:46:32;101287.41;;;-5.96;78.61
55373;BME280;41249;47.838;16.490;2022-12-18T08:49:00;101287.16;;;-5.83;77.04
55373;BME280;41249;47.838;16.490;2022-12-18T08:51:28;101283.44;;;-5.66;78.72
55373;BME280;41249;47.838;16.490;2022-12-18T08:53:54;101285.19;;;-5.43;78.00
55373;BME280;41249;47.838;16.490;2022-12-18T08:56:21;101293.41;;;-5.38;76.92
55373;BME280;41249;47.838;16.490;2022-12-18T08:58:51;101291.00;;;-5.51;76.47
55373;BME280;41249;47.838;16.490;2022-12-18T09:01:18;101280.94;;;-5.67;75.01
55373;BME280;41249;47.838;16.490;2022-12-18T09:03:45;101284.91;;;-5.58;74.29
55373;BME280;41249;47.838;16.490;2022-12-18T09:06:15;101277.25;;;-5.33;76.47
55373;BME280;41249;47.838;16.490;2022-12-18T09:08:45;101286.78;;;-5.14;76.69
55373;BME280;41249;47.838;16.490;2022-12-18T09:11:14;101286.78;;;-4.97;76.70
55373;BME280;41249;47.838;16.490;2022-12-18T09:13:41;101300.75;;;-5.05;74.61
55373;BME280;41249;47.838;16.490;2022-12-18T09:16:08;101313.38;;;-4.94;75.29
55373;BME280;41249;47.838;16.490;2022-12-18T09:18:35;101309.75;;;-5.00;76.71
55373;BME280;41249;47.838;16.490;2022-12-18T09:21:14;101304.84;;;-4.86;76.08
55373;BME280;41249;47.838;16.490;2022-12-18T09:23:41;101305.16;;;-4.66;75.47
55373;BME280;41249;47.838;16.490;2022-12-18T09:26:07;101308.84;;;-4.88;75.21
55373;BME280;41249;47.838;16.490;2022-12-18T09:28:34;101306.47;;;-4.85;77.48
55373;BME280;41249;47.838;16.490;2022-12-18T09:31:08;101302.88;;;-4.90;74.49
55373;BME280;41249;47.838;16.490;2022-12-18T09:33:35;101290.56;;;-4.98;75.79
55373;BME280;41249;47.838;16.490;2022-12-18T09:36:05;101299.25;;;-5.13;74.30
55373;BME280;41249;47.838;16.490;2022-12-18T09:38:34;101292.84;;;-5.07;73.85
55373;BME280;41249;47.838;16.490;2022-12-18T09:47:02;101295.38;;;-4.83;75.00
55373;BME280;41249;47.838;16.490;2022-12-18T09:49:35;101292.44;;;-4.98;76.31
55373;BME280;41249;47.838;16.490;2022-12-18T09:52:09;101288.75;;;-5.26;77.63
55373;BME280;41249;47.838;16.490;2022-12-18T09:54:41;101279.69;;;-5.48;78.54
55373;BME280;41249;47.838;16.490;2022-12-18T09:57:17;101270.94;;;-5.67;77.97
55373;BME280;41249;47.838;16.490;2022-12-18T09:59:50;101268.84;;;-5.93;75.94
55373;BME280;41249;47.838;16.490;2022-12-18T10:02:20;101275.78;;;-5.97;77.39
55373;BME280;41249;47.838;16.490;2022-12-18T10:10:38;101269.00;;;-6.11;75.99
55373;BME280;41249;47.838;16.490;2022-12-18T10:21:20;101255.75;;;-6.12;74.23
55373;BME280;41249;47.838;16.490;2022-12-18T10:24:04;101249.66;;;-5.91;75.25
55373;BME280;41249;47.838;16.490;2022-12-18T10:26:35;101251.81;;;-5.77;75.62
55373;BME280;41249;47.838;16.490;2022-12-18T10:29:08;101252.84;;;-5.66;74.45
55373;BME280;41249;47.838;16.490;2022-12-18T10:31:37;101250.91;;;-5.82;73.73
55373;BME280;41249;47.838;16.490;2022-12-18T10:34:03;101258.63;;;-5.74;73.63
55373;BME280;41249;47.838;16.490;2022-12-18T10:36:30;101262.22;;;-5.85;73.81
55373;BME280;41249;47.838;16.490;2022-12-18T10:39:15;101260.56;;;-5.86;74.72
55373;BME280;41249;47.838;16.490;2022-12-18T10:41:42;101265.53;;;-5.67;74.92
55373;BME280;41249;47.838;16.490;2022-12-18T10:44:16;101257.78;;;-5.46;75.58
55373;BME280;41249;47.838;16.490;2022-12-18T10:46:45;101249.50;;;-5.40;75.04
55373;BME280;41249;47.838;16.490;2022-12-18T10:49:33;101242.72;;;-5.26;76.58
55373;BME280;41249;47.838;16.490;2022-12-18T10:52:14;101243.28;;;-5.24;76.67
55373;BME280;41249;47.838;16.490;2022-12-18T10:54:51;101245.59;;;-5.16;76.34
55373;BME280;41249;47.838;16.490;2022-12-18T11:00:03;101233.91;;;-5.00;77.43
55373;BME280;41249;47.838;16.490;2022-12-18T11:02:39;101231.44;;;-4.84;76.85
55373;BME280;41249;47.838;16.490;2022-12-18T11:05:34;101240.72;;;-4.80;77.45
55373;BME280;41249;47.838;16.490;2022-12-18T11:08:03;101232.25;;;-4.84;77.22
55373;BME280;41249;47.838;16.490;2022-12-18T11:10:36;101225.72;;;-4.88;78.03
55373;BME280;41249;47.838;16.490;2022-12-18T11:15:40;101236.72;;;-5.11;76.34
55373;BME280;41249;47.838;16.490;2022-12-18T11:23:32;101225.16;;;-5.07;75.77
55373;BME280;41249;47.838;16.490;2022-12-18T11:26:02;101219.66;;;-5.28;75.62
55373;BME280;41249;47.838;16.490;2022-12-18T11:36:57;101227.53;;;-5.27;74.01
55373;BME280;41249;47.838;16.490;2022-12-18T11:39:38;101224.00;;;-5.44;74.11
55373;BME280;41249;47.838;16.490;2022-12-18T11:42:19;101221.72;;;-5.35;73.85
55373;BME280;41249;47.838;16.490;2022-12-18T11:44:52;101228.84;;;-5.46;73.47
55373;BME280;41249;47.838;16.490;2022-12-18T11:49:51;101213.09;;;-5.32;73.81
55373;BME280;41249;47.838;16.490;2022-12-18T11:54:51;101216.06;;;-5.34;74.14
55373;BME280;41249;47.838;16.490;2022-12-18T11:57:31;101210.47;;;-5.44;73.58
55373;BME280;41249;47.838;16.490;2022-12-18T12:03:21;101204.34;;;-5.23;74.54
55373;BME280;41249;47.838;16.490;2022-12-18T12:11:15;101196.53;;;-5.03;74.15
55373;BME280;41249;47.838;16.490;2022-12-18T12:17:11;101190.09;;;-4.96;74.41
55373;BME280;41249;47.838;16.490;2022-12-18T12:20:02;101192.50;;;-5.00;74.78
55373;BME280;41249;47.838;16.490;2022-12-18T12:22:44;101188.75;;;-5.16;75.32
55373;BME280;41249;47.838;16.490;2022-12-18T12:30:43;101181.59;;;-5.22;75.49
55373;BME280;41249;47.838;16.490;2022-12-18T12:38:56;101186.03;;;-5.16;76.57
55373;BME280;41249;47.838;16.490;2022-12-18T12:41:27;101188.28;;;-4.91;77.64
55373;BME280;41249;47.838;16.490;2022-12-18T12:44:20;101190.88;;;-4.79;78.28
55373;BME280;41249;47.838;16.490;2022-12-18T12:46:49;101188.13;;;-5.01;78.90
55373;BME280;41249;47.838;16.490;2022-12-18T12:49:20;101187.81;;;-5.05;81.54
55373;BME280;41249;47.838;16.490;2022-12-18T12:52:05;101190.59;;;-5.00;80.95
55373;BME280;41249;47.838;16.490;2022-12-18T12:54:34;101184.47;;;-4.73;81.53
55373;BME280;41249;47.838;16.490;2022-12-18T13:00:01;101187.75;;;-4.71;80.97
55373;BME280;41249;47.838;16.490;2022-12-18T13:05:58;101182.72;;;-4.41;81.76
55373;BME280;41249;47.838;16.490;2022-12-18T13:08:29;101191.34;;;-4.44;81.02
55373;BME280;41249;47.838;16.490;2022-12-18T13:11:00;101188.22;;;-4.58;81.88
55373;BME280;41249;47.838;16.490;2022-12-18T13:13:50;101199.63;;;-4.72;81.80
55373;BME280;41249;47.838;16.490;2022-12-18T13:16:23;101197.66;;;-4.98;81.06
55373;BME280;41249;47.838;16.490;2022-12-18T13:18:52;101197.56;;;-5.04;81.70
55373;BME280;41249;47.838;16.490;2022-12-18T13:21:24;101206.69;;;-5.10;81.14
55373;BME280;41249;47.838;16.490;2022-12-18T13:23:53;101203.97;;;-5.10;81.64
55373;BME280;41249;47.838;16.490;2022-12-18T13:28:56;101200.63;;;-5.17;81.47
55373;BME280;41249;47.838;16.490;2022-12-18T13:34:27;101218.09;;;-5.24;81.15
55373;BME280;41249;47.838;16.490;2022-12-18T13:39:58;101210.16;;;-5.47;81.62
55373;BME280;41249;47.838;16.490;2022-12-18T13:42:37;101211.44;;;-5.67;80.62
55373;BME280;41249;47.838;16.490;2022-12-18T13:45:38;101206.69;;;-5.59;81.55
55373;BME280;41249;47.838;16.490;2022-12-18T13:48:15;101202.00;;;-5.64;81.97
55373;BME280;41249;47.838;16.490;2022-12-18T13:50:42;101209.50;;;-5.38;82.42
55373;BME280;41249;47.838;16.490;2022-12-18T13:53:21;101222.19;;;-5.22;84.09
55373;BME280;41249;47.838;16.490;2022-12-18T13:55:49;101208.00;;;-5.29;83.92
55373;BME280;41249;47.838;16.490;2022-12-18T13:58:15;101212.53;;;-5.18;83.99
55373;BME280;41249;47.838;16.490;2022-12-18T14:00:44;101213.25;;;-5.22;84.49
55373;BME280;41249;47.838;16.490;2022-12-18T14:03:18;101212.28;;;-5.33;84.80
55373;BME280;41249;47.838;16.490;2022-12-18T14:06:02;101216.88;;;-5.50;83.88
55373;BME280;41249;47.838;16.490;2022-12-18T14:08:39;101238.25;;;-5.65;83.86
55373;BME280;41249;47.838;16.490;2022-12-18T14:11:18;101238.41;;;-5.72;83.54
55373;BME280;41249;47.838;16.490;2022-12-18T14:13:47;101238.31;;;-5.77;84.22
55373;BME280;41249;47.838;16.490;2022-12-18T14:16:15;101234.88;;;-5.72;84.11
55373;BME280;41249;47.838;16.490;2022-12-18T14:18:50;101239.56;;;-5.68;84.12
55373;BME280;41249;47.838;16.490;2022-12-18T14:21:22;101240.78;;;-5.75;84.44
55373;BME280;41249;47.838;16.490;2022-12-18T14:26:34;101239.50;;;-5.84;82.60
55373;BME280;41249;47.838;16.490;2022-12-18T14:29:20;101248.56;;;-5.79;82.70
55373;BME280;41249;47.838;16.490;2022-12-18T14:34:40;101249.25;;;-5.55;83.49
55373;BME280;41249;47.838;16.490;2022-12-18T14:37:10;101258.03;;;-5.48;84.08
55373;BME280;41249;47.838;16.490;2022-12-18T14:39:37;101258.81;;;-5.64;83.80
55373;BME280;41249;47.838;16.490;2022-12-18T14:42:04;101257.94;;;-5.53;84.58
55373;BME280;41249;47.838;16.490;2022-12-18T14:44:30;101260.22;;;-5.61;84.46
55373;BME280;41249;47.838;16.490;2022-12-18T14:47:16;101263.38;;;-5.53;84.40
55373;BME280;41249;47.838;16.490;2022-12-18T14:49:44;101269.50;;;-5.57;83.76